sensor_id;sensor_type;location;lat;lon;timestamp;P1;durP1;ratioP1;P2;durP2;ratioP2
55815;SDS011;41744;52.404;16.942;2022-09-09T00:00:35;16.50;;;9.65;;
55815;SDS011;41744;52.404;16.942;2022-09-09T00:05:36;16.65;;;9.90;;
55815;SDS011;41744;52.404;16.942;2022-09-09T00:08:04;15.93;;;10.02;;
55815;SDS011;41744;52.404;16.942;2022-09-09T00:10:32;16.38;;;9.43;;
55815;SDS011;41744;52.404;16.942;2022-09-09T00:13:05;19.42;;;10.23;;
55815;SDS011;41744;52.404;16.942;2022-09-09T00:18:40;22.85;;;11.15;;
55815;SDS011;41744;52.404;16.942;2022-09-09T00:21:05;17.13;;;9.90;;
55815;SDS011;41744;52.404;16.942;2022-09-09T00:23:35;15.43;;;9.63;;
55815;SDS011;41744;52.404;16.942;2022-09-09T00:31:20;15.20;;;9.75;;
55815;SDS011;41744;52.404;16.942;2022-09-09T00:33:47;19.65;;;10.45;;
55815;SDS011;41744;52.404;16.942;2022-09-09T00:36:16;18.38;;;10.90;;
55815;SDS011;41744;52.404;16.942;2022-09-09T00:38:48;18.75;;;9.57;;
55815;SDS011;41744;52.404;16.942;2022-09-09T00:57:06;17.80;;;10.25;;
55815;SDS011;41744;52.404;16.942;2022-09-09T00:59:47;17.25;;;10.68;;
55815;SDS011;41744;52.404;16.942;2022-09-09T01:02:16;15.68;;;9.15;;
55815;SDS011;41744;52.404;16.942;2022-09-09T01:04:43;17.50;;;9.55;;
55815;SDS011;41744;52.404;16.942;2022-09-09T01:07:18;15.43;;;9.73;;
55815;SDS011;41744;52.404;16.942;2022-09-09T01:09:51;15.52;;;9.75;;
55815;SDS011;41744;52.404;16.942;2022-09-09T01:12:29;12.13;;;7.78;;
55815;SDS011;41744;52.404;16.942;2022-09-09T01:15:03;17.75;;;9.32;;
55815;SDS011;41744;52.404;16.942;2022-09-09T01:17:35;14.07;;;8.18;;
55815;SDS011;41744;52.404;16.942;2022-09-09T01:22:52;14.52;;;8.55;;
55815;SDS011;41744;52.404;16.942;2022-09-09T01:25:29;12.40;;;7.80;;
55815;SDS011;41744;52.404;16.942;2022-09-09T01:28:00;12.73;;;7.15;;
55815;SDS011;41744;52.404;16.942;2022-09-09T01:30:28;11.23;;;7.57;;
55815;SDS011;41744;52.404;16.942;2022-09-09T01:32:55;11.77;;;7.97;;
55815;SDS011;41744;52.404;16.942;2022-09-09T01:38:04;11.35;;;6.85;;
55815;SDS011;41744;52.404;16.942;2022-09-09T01:40:31;13.40;;;7.30;;
55815;SDS011;41744;52.404;16.942;2022-09-09T01:42:57;13.82;;;7.45;;
55815;SDS011;41744;52.404;16.942;2022-09-09T01:45:23;12.20;;;7.30;;
55815;SDS011;41744;52.404;16.942;2022-09-09T01:47:50;11.20;;;7.25;;
55815;SDS011;41744;52.404;16.942;2022-09-09T01:50:17;14.40;;;7.55;;
55815;SDS011;41744;52.404;16.942;2022-09-09T01:52:45;10.75;;;7.18;;
55815;SDS011;41744;52.404;16.942;2022-09-09T01:55:12;10.35;;;7.13;;
55815;SDS011;41744;52.404;16.942;2022-09-09T01:57:44;11.30;;;7.55;;
55815;SDS011;41744;52.404;16.942;2022-09-09T02:00:12;9.63;;;6.22;;
55815;SDS011;41744;52.404;16.942;2022-09-09T02:08:03;10.13;;;6.90;;
55815;SDS011;41744;52.404;16.942;2022-09-09T02:10:42;12.45;;;7.60;;
55815;SDS011;41744;52.404;16.942;2022-09-09T02:13:11;11.52;;;6.82;;
55815;SDS011;41744;52.404;16.942;2022-09-09T02:18:10;10.43;;;6.80;;
55815;SDS011;41744;52.404;16.942;2022-09-09T02:20:38;12.00;;;6.43;;
55815;SDS011;41744;52.404;16.942;2022-09-09T02:23:05;10.48;;;6.50;;
55815;SDS011;41744;52.404;16.942;2022-09-09T02:25:33;11.73;;;7.15;;
55815;SDS011;41744;52.404;16.942;2022-09-09T02:28:01;15.30;;;7.05;;
55815;SDS011;41744;52.404;16.942;2022-09-09T02:30:28;10.70;;;7.25;;
55815;SDS011;41744;52.404;16.942;2022-09-09T02:32:55;13.05;;;7.35;;
55815;SDS011;41744;52.404;16.942;2022-09-09T02:35:22;8.23;;;6.22;;
55815;SDS011;41744;52.404;16.942;2022-09-09T02:37:49;18.75;;;7.22;;
55815;SDS011;41744;52.404;16.942;2022-09-09T02:40:16;10.23;;;6.70;;
55815;SDS011;41744;52.404;16.942;2022-09-09T02:42:43;11.93;;;6.90;;
55815;SDS011;41744;52.404;16.942;2022-09-09T02:45:10;9.88;;;6.78;;
55815;SDS011;41744;52.404;16.942;2022-09-09T02:47:43;8.48;;;5.88;;
55815;SDS011;41744;52.404;16.942;2022-09-09T02:55:28;9.82;;;6.22;;
55815;SDS011;41744;52.404;16.942;2022-09-09T02:57:58;13.80;;;6.55;;
55815;SDS011;41744;52.404;16.942;2022-09-09T03:00:25;11.40;;;6.45;;
55815;SDS011;41744;52.404;16.942;2022-09-09T03:02:52;13.13;;;6.45;;
55815;SDS011;41744;52.404;16.942;2022-09-09T03:05:19;13.18;;;6.13;;
55815;SDS011;41744;52.404;16.942;2022-09-09T03:07:45;12.45;;;6.63;;
55815;SDS011;41744;52.404;16.942;2022-09-09T03:10:11;12.63;;;6.82;;
55815;SDS011;41744;52.404;16.942;2022-09-09T03:12:38;13.20;;;6.68;;
55815;SDS011;41744;52.404;16.942;2022-09-09T03:15:05;8.93;;;6.53;;
55815;SDS011;41744;52.404;16.942;2022-09-09T03:17:31;10.05;;;6.32;;
55815;SDS011;41744;52.404;16.942;2022-09-09T03:19:57;10.38;;;6.55;;
55815;SDS011;41744;52.404;16.942;2022-09-09T03:22:23;10.43;;;6.00;;
55815;SDS011;41744;52.404;16.942;2022-09-09T03:24:50;11.55;;;6.63;;
55815;SDS011;41744;52.404;16.942;2022-09-09T03:27:16;10.23;;;6.13;;
55815;SDS011;41744;52.404;16.942;2022-09-09T03:29:43;11.27;;;6.88;;
55815;SDS011;41744;52.404;16.942;2022-09-09T03:32:10;12.88;;;6.70;;
55815;SDS011;41744;52.404;16.942;2022-09-09T03:34:36;10.13;;;6.65;;
55815;SDS011;41744;52.404;16.942;2022-09-09T03:37:05;10.00;;;6.20;;
55815;SDS011;41744;52.404;16.942;2022-09-09T03:39:31;9.95;;;6.38;;
55815;SDS011;41744;52.404;16.942;2022-09-09T03:41:57;11.02;;;6.47;;
55815;SDS011;41744;52.404;16.942;2022-09-09T03:44:23;11.85;;;6.45;;
55815;SDS011;41744;52.404;16.942;2022-09-09T03:46:49;11.45;;;6.75;;
55815;SDS011;41744;52.404;16.942;2022-09-09T03:49:15;12.40;;;6.47;;
55815;SDS011;41744;52.404;16.942;2022-09-09T03:51:41;13.18;;;6.75;;
55815;SDS011;41744;52.404;16.942;2022-09-09T03:54:08;11.23;;;7.20;;
55815;SDS011;41744;52.404;16.942;2022-09-09T03:56:35;9.60;;;6.35;;
55815;SDS011;41744;52.404;16.942;2022-09-09T03:59:02;12.35;;;7.15;;
55815;SDS011;41744;52.404;16.942;2022-09-09T04:01:28;12.38;;;6.63;;
55815;SDS011;41744;52.404;16.942;2022-09-09T04:03:54;11.10;;;6.97;;
55815;SDS011;41744;52.404;16.942;2022-09-09T04:06:23;13.38;;;6.28;;
55815;SDS011;41744;52.404;16.942;2022-09-09T04:08:49;10.27;;;6.57;;
55815;SDS011;41744;52.404;16.942;2022-09-09T04:11:17;10.73;;;6.35;;
55815;SDS011;41744;52.404;16.942;2022-09-09T04:13:43;11.98;;;6.72;;
55815;SDS011;41744;52.404;16.942;2022-09-09T04:16:09;11.43;;;6.68;;
55815;SDS011;41744;52.404;16.942;2022-09-09T04:18:36;10.65;;;7.05;;
55815;SDS011;41744;52.404;16.942;2022-09-09T04:21:02;9.43;;;6.22;;
55815;SDS011;41744;52.404;16.942;2022-09-09T04:23:29;9.60;;;6.05;;
55815;SDS011;41744;52.404;16.942;2022-09-09T04:25:56;10.40;;;6.63;;
55815;SDS011;41744;52.404;16.942;2022-09-09T04:28:23;11.52;;;6.97;;
55815;SDS011;41744;52.404;16.942;2022-09-09T04:30:49;11.32;;;7.15;;
55815;SDS011;41744;52.404;16.942;2022-09-09T04:33:15;12.23;;;6.78;;
55815;SDS011;41744;52.404;16.942;2022-09-09T04:35:45;10.70;;;6.65;;
55815;SDS011;41744;52.404;16.942;2022-09-09T04:38:11;12.95;;;6.38;;
55815;SDS011;41744;52.404;16.942;2022-09-09T04:40:37;13.45;;;6.32;;
55815;SDS011;41744;52.404;16.942;2022-09-09T04:43:08;15.00;;;6.80;;
55815;SDS011;41744;52.404;16.942;2022-09-09T04:45:34;9.85;;;6.68;;
55815;SDS011;41744;52.404;16.942;2022-09-09T04:48:01;10.23;;;6.95;;
55815;SDS011;41744;52.404;16.942;2022-09-09T04:50:27;11.07;;;6.85;;
55815;SDS011;41744;52.404;16.942;2022-09-09T04:52:54;10.57;;;6.60;;
55815;SDS011;41744;52.404;16.942;2022-09-09T04:55:20;11.27;;;6.63;;
55815;SDS011;41744;52.404;16.942;2022-09-09T04:57:46;10.88;;;7.03;;
55815;SDS011;41744;52.404;16.942;2022-09-09T05:00:13;14.85;;;7.35;;
55815;SDS011;41744;52.404;16.942;2022-09-09T05:02:39;17.48;;;9.75;;
55815;SDS011;41744;52.404;16.942;2022-09-09T05:05:07;61.17;;;29.13;;
55815;SDS011;41744;52.404;16.942;2022-09-09T05:07:33;35.53;;;18.40;;
55815;SDS011;41744;52.404;16.942;2022-09-09T05:10:01;22.70;;;12.10;;
55815;SDS011;41744;52.404;16.942;2022-09-09T05:12:30;22.25;;;12.18;;
55815;SDS011;41744;52.404;16.942;2022-09-09T05:14:56;19.95;;;10.38;;
55815;SDS011;41744;52.404;16.942;2022-09-09T05:17:23;17.52;;;9.15;;
55815;SDS011;41744;52.404;16.942;2022-09-09T05:19:49;18.65;;;9.43;;
55815;SDS011;41744;52.404;16.942;2022-09-09T05:22:18;17.05;;;9.60;;
55815;SDS011;41744;52.404;16.942;2022-09-09T05:24:45;23.50;;;11.82;;
55815;SDS011;41744;52.404;16.942;2022-09-09T05:27:11;19.92;;;10.73;;
55815;SDS011;41744;52.404;16.942;2022-09-09T05:29:37;19.27;;;9.75;;
55815;SDS011;41744;52.404;16.942;2022-09-09T05:32:04;20.38;;;11.45;;
55815;SDS011;41744;52.404;16.942;2022-09-09T05:34:30;20.17;;;10.55;;
55815;SDS011;41744;52.404;16.942;2022-09-09T05:36:56;15.35;;;9.63;;
55815;SDS011;41744;52.404;16.942;2022-09-09T05:39:23;17.02;;;9.75;;
55815;SDS011;41744;52.404;16.942;2022-09-09T05:41:49;17.73;;;10.68;;
55815;SDS011;41744;52.404;16.942;2022-09-09T05:44:16;17.25;;;10.38;;
55815;SDS011;41744;52.404;16.942;2022-09-09T05:46:42;18.48;;;9.88;;
55815;SDS011;41744;52.404;16.942;2022-09-09T05:49:09;19.52;;;9.55;;
55815;SDS011;41744;52.404;16.942;2022-09-09T05:51:35;14.40;;;8.82;;
55815;SDS011;41744;52.404;16.942;2022-09-09T05:54:01;16.52;;;8.43;;
55815;SDS011;41744;52.404;16.942;2022-09-09T05:56:28;14.02;;;8.88;;
55815;SDS011;41744;52.404;16.942;2022-09-09T05:58:55;14.50;;;9.07;;
55815;SDS011;41744;52.404;16.942;2022-09-09T06:03:47;14.63;;;8.82;;
55815;SDS011;41744;52.404;16.942;2022-09-09T06:06:15;13.57;;;7.80;;
55815;SDS011;41744;52.404;16.942;2022-09-09T06:08:42;15.98;;;8.25;;
55815;SDS011;41744;52.404;16.942;2022-09-09T06:13:36;14.43;;;8.18;;
55815;SDS011;41744;52.404;16.942;2022-09-09T06:16:03;15.80;;;8.15;;
55815;SDS011;41744;52.404;16.942;2022-09-09T06:18:30;12.70;;;8.23;;
55815;SDS011;41744;52.404;16.942;2022-09-09T06:20:57;16.60;;;8.07;;
55815;SDS011;41744;52.404;16.942;2022-09-09T06:23:23;14.35;;;9.35;;
55815;SDS011;41744;52.404;16.942;2022-09-09T06:25:50;15.27;;;8.98;;
55815;SDS011;41744;52.404;16.942;2022-09-09T06:28:16;17.63;;;9.18;;
55815;SDS011;41744;52.404;16.942;2022-09-09T06:30:42;13.05;;;8.43;;
55815;SDS011;41744;52.404;16.942;2022-09-09T06:33:09;18.45;;;9.13;;
55815;SDS011;41744;52.404;16.942;2022-09-09T06:35:35;15.20;;;9.35;;
55815;SDS011;41744;52.404;16.942;2022-09-09T06:38:01;15.30;;;9.75;;
55815;SDS011;41744;52.404;16.942;2022-09-09T06:40:28;14.10;;;8.68;;
55815;SDS011;41744;52.404;16.942;2022-09-09T06:42:55;15.27;;;9.38;;
55815;SDS011;41744;52.404;16.942;2022-09-09T06:45:24;16.92;;;8.82;;
55815;SDS011;41744;52.404;16.942;2022-09-09T06:47:50;16.52;;;9.35;;
55815;SDS011;41744;52.404;16.942;2022-09-09T06:50:17;12.13;;;8.15;;
55815;SDS011;41744;52.404;16.942;2022-09-09T06:52:45;13.60;;;7.95;;
55815;SDS011;41744;52.404;16.942;2022-09-09T06:55:12;13.05;;;7.80;;
55815;SDS011;41744;52.404;16.942;2022-09-09T06:57:40;12.43;;;7.35;;
55815;SDS011;41744;52.404;16.942;2022-09-09T07:00:06;11.82;;;8.75;;
55815;SDS011;41744;52.404;16.942;2022-09-09T07:02:33;12.23;;;8.63;;
55815;SDS011;41744;52.404;16.942;2022-09-09T07:05:03;13.30;;;8.85;;
55815;SDS011;41744;52.404;16.942;2022-09-09T07:07:30;14.32;;;8.30;;
55815;SDS011;41744;52.404;16.942;2022-09-09T07:09:56;13.20;;;7.88;;
55815;SDS011;41744;52.404;16.942;2022-09-09T07:12:22;12.85;;;8.20;;
55815;SDS011;41744;52.404;16.942;2022-09-09T07:14:48;12.18;;;7.30;;
55815;SDS011;41744;52.404;16.942;2022-09-09T07:17:14;11.32;;;8.07;;
55815;SDS011;41744;52.404;16.942;2022-09-09T07:19:40;11.35;;;7.75;;
55815;SDS011;41744;52.404;16.942;2022-09-09T07:22:06;10.20;;;7.45;;
55815;SDS011;41744;52.404;16.942;2022-09-09T07:24:32;12.20;;;7.20;;
55815;SDS011;41744;52.404;16.942;2022-09-09T07:27:02;12.90;;;8.20;;
55815;SDS011;41744;52.404;16.942;2022-09-09T07:29:28;10.88;;;7.38;;
55815;SDS011;41744;52.404;16.942;2022-09-09T07:31:54;10.18;;;7.20;;
55815;SDS011;41744;52.404;16.942;2022-09-09T07:34:20;11.05;;;6.18;;
55815;SDS011;41744;52.404;16.942;2022-09-09T07:36:46;8.88;;;6.63;;
55815;SDS011;41744;52.404;16.942;2022-09-09T07:39:13;14.02;;;6.63;;
55815;SDS011;41744;52.404;16.942;2022-09-09T07:41:41;8.27;;;5.90;;
55815;SDS011;41744;52.404;16.942;2022-09-09T07:44:08;10.38;;;6.18;;
55815;SDS011;41744;52.404;16.942;2022-09-09T07:46:35;9.50;;;6.57;;
55815;SDS011;41744;52.404;16.942;2022-09-09T07:49:04;9.23;;;5.97;;
55815;SDS011;41744;52.404;16.942;2022-09-09T07:51:31;13.13;;;8.10;;
55815;SDS011;41744;52.404;16.942;2022-09-09T07:54:04;13.15;;;6.40;;
55815;SDS011;41744;52.404;16.942;2022-09-09T07:56:31;6.70;;;5.10;;
55815;SDS011;41744;52.404;16.942;2022-09-09T07:58:57;6.57;;;5.45;;
55815;SDS011;41744;52.404;16.942;2022-09-09T08:01:34;9.35;;;7.00;;
55815;SDS011;41744;52.404;16.942;2022-09-09T08:04:06;9.23;;;6.88;;
55815;SDS011;41744;52.404;16.942;2022-09-09T08:06:33;8.75;;;6.32;;
55815;SDS011;41744;52.404;16.942;2022-09-09T08:08:59;11.18;;;6.70;;
55815;SDS011;41744;52.404;16.942;2022-09-09T08:11:26;9.13;;;6.03;;
55815;SDS011;41744;52.404;16.942;2022-09-09T08:13:52;8.25;;;6.22;;
55815;SDS011;41744;52.404;16.942;2022-09-09T08:16:28;9.63;;;6.28;;
55815;SDS011;41744;52.404;16.942;2022-09-09T08:18:55;7.50;;;5.75;;
55815;SDS011;41744;52.404;16.942;2022-09-09T08:21:23;9.77;;;6.05;;
55815;SDS011;41744;52.404;16.942;2022-09-09T08:23:50;8.70;;;5.53;;
55815;SDS011;41744;52.404;16.942;2022-09-09T08:26:18;8.18;;;4.93;;
55815;SDS011;41744;52.404;16.942;2022-09-09T08:28:46;9.00;;;4.78;;
55815;SDS011;41744;52.404;16.942;2022-09-09T08:31:14;9.32;;;5.45;;
55815;SDS011;41744;52.404;16.942;2022-09-09T08:36:32;7.03;;;4.13;;
55815;SDS011;41744;52.404;16.942;2022-09-09T08:38:58;6.93;;;4.30;;
55815;SDS011;41744;52.404;16.942;2022-09-09T08:43:50;6.28;;;4.72;;
55815;SDS011;41744;52.404;16.942;2022-09-09T08:46:21;5.63;;;3.95;;
55815;SDS011;41744;52.404;16.942;2022-09-09T08:51:17;6.68;;;3.90;;
55815;SDS011;41744;52.404;16.942;2022-09-09T08:53:44;7.40;;;5.35;;
55815;SDS011;41744;52.404;16.942;2022-09-09T08:56:13;7.05;;;5.40;;
55815;SDS011;41744;52.404;16.942;2022-09-09T08:58:43;8.43;;;5.55;;
55815;SDS011;41744;52.404;16.942;2022-09-09T09:09:06;6.90;;;4.22;;
55815;SDS011;41744;52.404;16.942;2022-09-09T09:11:37;12.05;;;4.15;;
55815;SDS011;41744;52.404;16.942;2022-09-09T09:14:07;8.85;;;4.38;;
55815;SDS011;41744;52.404;16.942;2022-09-09T09:16:45;6.47;;;3.78;;
55815;SDS011;41744;52.404;16.942;2022-09-09T09:19:14;4.57;;;3.40;;
55815;SDS011;41744;52.404;16.942;2022-09-09T09:21:42;5.97;;;3.47;;
55815;SDS011;41744;52.404;16.942;2022-09-09T09:24:19;5.10;;;2.78;;
55815;SDS011;41744;52.404;16.942;2022-09-09T09:26:46;5.10;;;2.88;;
55815;SDS011;41744;52.404;16.942;2022-09-09T09:29:13;5.95;;;2.95;;
55815;SDS011;41744;52.404;16.942;2022-09-09T09:31:42;5.20;;;3.90;;
55815;SDS011;41744;52.404;16.942;2022-09-09T09:34:09;5.75;;;3.00;;
55815;SDS011;41744;52.404;16.942;2022-09-09T09:36:41;6.82;;;2.90;;
55815;SDS011;41744;52.404;16.942;2022-09-09T09:39:09;3.90;;;2.67;;
55815;SDS011;41744;52.404;16.942;2022-09-09T09:41:36;5.70;;;3.15;;
55815;SDS011;41744;52.404;16.942;2022-09-09T09:44:04;4.85;;;3.20;;
55815;SDS011;41744;52.404;16.942;2022-09-09T09:46:30;4.00;;;3.38;;
55815;SDS011;41744;52.404;16.942;2022-09-09T09:48:59;7.47;;;3.90;;
55815;SDS011;41744;52.404;16.942;2022-09-09T09:51:26;6.93;;;3.72;;
55815;SDS011;41744;52.404;16.942;2022-09-09T09:53:53;4.07;;;3.10;;
55815;SDS011;41744;52.404;16.942;2022-09-09T09:56:25;3.60;;;2.95;;
55815;SDS011;41744;52.404;16.942;2022-09-09T09:58:53;4.05;;;3.03;;
55815;SDS011;41744;52.404;16.942;2022-09-09T10:01:21;5.28;;;3.15;;
55815;SDS011;41744;52.404;16.942;2022-09-09T10:03:53;5.65;;;2.70;;
55815;SDS011;41744;52.404;16.942;2022-09-09T10:06:32;3.90;;;2.97;;
55815;SDS011;41744;52.404;16.942;2022-09-09T10:08:58;4.95;;;3.00;;
55815;SDS011;41744;52.404;16.942;2022-09-09T10:11:30;5.63;;;3.00;;
55815;SDS011;41744;52.404;16.942;2022-09-09T10:14:04;7.18;;;3.05;;
55815;SDS011;41744;52.404;16.942;2022-09-09T10:19:05;5.60;;;2.67;;
55815;SDS011;41744;52.404;16.942;2022-09-09T10:26:55;7.93;;;2.78;;
55815;SDS011;41744;52.404;16.942;2022-09-09T10:29:35;4.43;;;3.20;;
55815;SDS011;41744;52.404;16.942;2022-09-09T10:34:36;5.22;;;2.65;;
55815;SDS011;41744;52.404;16.942;2022-09-09T10:37:14;3.10;;;2.60;;
55815;SDS011;41744;52.404;16.942;2022-09-09T10:39:42;5.28;;;3.00;;
55815;SDS011;41744;52.404;16.942;2022-09-09T10:42:14;8.75;;;2.80;;
55815;SDS011;41744;52.404;16.942;2022-09-09T10:44:44;5.05;;;2.80;;
55815;SDS011;41744;52.404;16.942;2022-09-09T10:55:24;6.75;;;2.90;;
55815;SDS011;41744;52.404;16.942;2022-09-09T10:57:51;6.07;;;2.92;;
55815;SDS011;41744;52.404;16.942;2022-09-09T11:00:22;5.40;;;3.50;;
55815;SDS011;41744;52.404;16.942;2022-09-09T11:02:55;5.55;;;3.00;;
55815;SDS011;41744;52.404;16.942;2022-09-09T11:05:31;6.50;;;3.30;;
55815;SDS011;41744;52.404;16.942;2022-09-09T11:08:01;7.82;;;2.47;;
55815;SDS011;41744;52.404;16.942;2022-09-09T11:10:38;3.10;;;2.53;;
55815;SDS011;41744;52.404;16.942;2022-09-09T11:13:09;4.35;;;2.97;;
55815;SDS011;41744;52.404;16.942;2022-09-09T11:15:39;6.43;;;2.63;;
55815;SDS011;41744;52.404;16.942;2022-09-09T11:18:06;3.05;;;2.20;;
55815;SDS011;41744;52.404;16.942;2022-09-09T11:20:36;3.35;;;2.35;;
55815;SDS011;41744;52.404;16.942;2022-09-09T11:23:13;2.83;;;2.10;;
55815;SDS011;41744;52.404;16.942;2022-09-09T11:36:26;3.63;;;2.10;;
55815;SDS011;41744;52.404;16.942;2022-09-09T11:39:06;5.07;;;2.00;;
55815;SDS011;41744;52.404;16.942;2022-09-09T11:41:37;5.25;;;2.20;;
55815;SDS011;41744;52.404;16.942;2022-09-09T11:44:13;5.80;;;1.98;;
55815;SDS011;41744;52.404;16.942;2022-09-09T11:46:49;3.92;;;1.80;;
55815;SDS011;41744;52.404;16.942;2022-09-09T11:49:30;8.07;;;2.00;;
55815;SDS011;41744;52.404;16.942;2022-09-09T11:52:22;6.85;;;2.10;;
55815;SDS011;41744;52.404;16.942;2022-09-09T11:54:50;5.13;;;2.00;;
55815;SDS011;41744;52.404;16.942;2022-09-09T11:57:21;3.63;;;2.40;;
55815;SDS011;41744;52.404;16.942;2022-09-09T11:59:51;7.30;;;2.00;;
55815;SDS011;41744;52.404;16.942;2022-09-09T12:02:19;5.22;;;2.00;;
55815;SDS011;41744;52.404;16.942;2022-09-09T12:05:02;5.97;;;2.10;;
55815;SDS011;41744;52.404;16.942;2022-09-09T12:10:04;11.48;;;2.53;;
55815;SDS011;41744;52.404;16.942;2022-09-09T12:15:02;10.40;;;2.20;;
55815;SDS011;41744;52.404;16.942;2022-09-09T12:17:29;7.45;;;2.33;;
55815;SDS011;41744;52.404;16.942;2022-09-09T12:20:03;8.98;;;2.67;;
55815;SDS011;41744;52.404;16.942;2022-09-09T12:25:31;4.18;;;1.92;;
55815;SDS011;41744;52.404;16.942;2022-09-09T12:28:02;8.30;;;2.20;;
55815;SDS011;41744;52.404;16.942;2022-09-09T12:30:31;4.00;;;2.13;;
55815;SDS011;41744;52.404;16.942;2022-09-09T12:33:00;4.03;;;1.90;;
55815;SDS011;41744;52.404;16.942;2022-09-09T12:35:27;4.50;;;2.10;;
55815;SDS011;41744;52.404;16.942;2022-09-09T12:38:03;2.47;;;1.98;;
55815;SDS011;41744;52.404;16.942;2022-09-09T12:40:33;5.38;;;2.00;;
55815;SDS011;41744;52.404;16.942;2022-09-09T12:43:14;2.42;;;1.85;;
55815;SDS011;41744;52.404;16.942;2022-09-09T12:45:42;3.75;;;1.70;;
55815;SDS011;41744;52.404;16.942;2022-09-09T12:48:08;5.85;;;2.30;;
55815;SDS011;41744;52.404;16.942;2022-09-09T12:50:45;3.53;;;2.15;;
55815;SDS011;41744;52.404;16.942;2022-09-09T12:56:00;5.82;;;1.90;;
55815;SDS011;41744;52.404;16.942;2022-09-09T12:58:27;2.83;;;2.08;;
55815;SDS011;41744;52.404;16.942;2022-09-09T13:00:57;3.58;;;2.10;;
55815;SDS011;41744;52.404;16.942;2022-09-09T13:03:25;4.50;;;2.25;;
55815;SDS011;41744;52.404;16.942;2022-09-09T13:05:51;4.35;;;1.92;;
55815;SDS011;41744;52.404;16.942;2022-09-09T13:08:18;4.10;;;2.20;;
55815;SDS011;41744;52.404;16.942;2022-09-09T13:10:51;2.40;;;1.90;;
55815;SDS011;41744;52.404;16.942;2022-09-09T13:13:25;7.50;;;1.95;;
55815;SDS011;41744;52.404;16.942;2022-09-09T13:15:55;5.38;;;1.80;;
55815;SDS011;41744;52.404;16.942;2022-09-09T13:18:29;4.15;;;1.80;;
55815;SDS011;41744;52.404;16.942;2022-09-09T13:20:55;4.82;;;1.73;;
55815;SDS011;41744;52.404;16.942;2022-09-09T13:23:29;3.70;;;1.92;;
55815;SDS011;41744;52.404;16.942;2022-09-09T13:25:57;6.97;;;2.53;;
55815;SDS011;41744;52.404;16.942;2022-09-09T13:28:25;3.13;;;2.10;;
55815;SDS011;41744;52.404;16.942;2022-09-09T13:33:30;4.43;;;1.95;;
55815;SDS011;41744;52.404;16.942;2022-09-09T13:35:59;3.78;;;1.70;;
55815;SDS011;41744;52.404;16.942;2022-09-09T13:38:26;3.35;;;1.83;;
55815;SDS011;41744;52.404;16.942;2022-09-09T13:43:26;3.10;;;1.67;;
55815;SDS011;41744;52.404;16.942;2022-09-09T13:46:03;4.40;;;1.70;;
55815;SDS011;41744;52.404;16.942;2022-09-09T13:48:29;2.78;;;1.67;;
55815;SDS011;41744;52.404;16.942;2022-09-09T13:51:03;5.50;;;1.70;;
55815;SDS011;41744;52.404;16.942;2022-09-09T13:53:30;4.95;;;1.55;;
55815;SDS011;41744;52.404;16.942;2022-09-09T13:55:57;2.88;;;1.80;;
55815;SDS011;41744;52.404;16.942;2022-09-09T13:58:23;6.38;;;1.60;;
55815;SDS011;41744;52.404;16.942;2022-09-09T14:00:50;4.78;;;1.50;;
55815;SDS011;41744;52.404;16.942;2022-09-09T14:03:16;2.63;;;1.55;;
55815;SDS011;41744;52.404;16.942;2022-09-09T14:05:43;3.10;;;1.55;;
55815;SDS011;41744;52.404;16.942;2022-09-09T14:08:10;5.25;;;1.33;;
55815;SDS011;41744;52.404;16.942;2022-09-09T14:10:39;2.78;;;1.40;;
55815;SDS011;41744;52.404;16.942;2022-09-09T14:13:05;3.40;;;1.48;;
55815;SDS011;41744;52.404;16.942;2022-09-09T14:15:33;4.20;;;1.40;;
55815;SDS011;41744;52.404;16.942;2022-09-09T14:17:59;2.78;;;1.30;;
55815;SDS011;41744;52.404;16.942;2022-09-09T14:20:25;2.22;;;1.10;;
55815;SDS011;41744;52.404;16.942;2022-09-09T14:22:51;1.65;;;0.90;;
55815;SDS011;41744;52.404;16.942;2022-09-09T14:25:18;1.45;;;1.00;;
55815;SDS011;41744;52.404;16.942;2022-09-09T14:27:44;2.50;;;1.40;;
55815;SDS011;41744;52.404;16.942;2022-09-09T14:30:11;2.78;;;1.20;;
55815;SDS011;41744;52.404;16.942;2022-09-09T14:32:37;3.10;;;1.13;;
55815;SDS011;41744;52.404;16.942;2022-09-09T14:35:03;3.40;;;1.50;;
55815;SDS011;41744;52.404;16.942;2022-09-09T14:37:29;4.15;;;1.25;;
55815;SDS011;41744;52.404;16.942;2022-09-09T14:39:56;3.38;;;1.08;;
55815;SDS011;41744;52.404;16.942;2022-09-09T14:42:22;3.38;;;1.23;;
55815;SDS011;41744;52.404;16.942;2022-09-09T14:44:48;3.88;;;1.40;;
55815;SDS011;41744;52.404;16.942;2022-09-09T14:47:14;5.00;;;1.90;;
55815;SDS011;41744;52.404;16.942;2022-09-09T14:49:40;5.70;;;1.98;;
55815;SDS011;41744;52.404;16.942;2022-09-09T14:52:08;2.22;;;1.38;;
55815;SDS011;41744;52.404;16.942;2022-09-09T14:54:34;3.00;;;1.23;;
55815;SDS011;41744;52.404;16.942;2022-09-09T14:57:00;1.90;;;1.25;;
55815;SDS011;41744;52.404;16.942;2022-09-09T14:59:27;2.75;;;1.60;;
55815;SDS011;41744;52.404;16.942;2022-09-09T15:01:53;6.22;;;1.60;;
55815;SDS011;41744;52.404;16.942;2022-09-09T15:04:19;6.75;;;1.45;;
55815;SDS011;41744;52.404;16.942;2022-09-09T15:06:45;2.83;;;1.67;;
55815;SDS011;41744;52.404;16.942;2022-09-09T15:09:13;4.22;;;2.15;;
55815;SDS011;41744;52.404;16.942;2022-09-09T15:11:39;4.13;;;2.28;;
55815;SDS011;41744;52.404;16.942;2022-09-09T15:14:06;4.05;;;1.80;;
55815;SDS011;41744;52.404;16.942;2022-09-09T15:16:32;5.45;;;2.40;;
55815;SDS011;41744;52.404;16.942;2022-09-09T15:18:59;3.78;;;1.50;;
55815;SDS011;41744;52.404;16.942;2022-09-09T15:21:26;3.53;;;1.73;;
55815;SDS011;41744;52.404;16.942;2022-09-09T15:23:53;4.43;;;1.92;;
55815;SDS011;41744;52.404;16.942;2022-09-09T15:26:19;4.90;;;2.22;;
55815;SDS011;41744;52.404;16.942;2022-09-09T15:28:46;3.80;;;1.70;;
55815;SDS011;41744;52.404;16.942;2022-09-09T15:33:51;4.05;;;1.50;;
55815;SDS011;41744;52.404;16.942;2022-09-09T15:36:19;4.40;;;1.75;;
55815;SDS011;41744;52.404;16.942;2022-09-09T15:38:45;2.97;;;1.58;;
55815;SDS011;41744;52.404;16.942;2022-09-09T15:41:14;7.70;;;3.90;;
55815;SDS011;41744;52.404;16.942;2022-09-09T15:43:44;5.30;;;3.10;;
55815;SDS011;41744;52.404;16.942;2022-09-09T15:46:30;6.82;;;2.13;;
55815;SDS011;41744;52.404;16.942;2022-09-09T15:48:58;5.47;;;1.88;;
55815;SDS011;41744;52.404;16.942;2022-09-09T15:51:25;4.55;;;1.90;;
55815;SDS011;41744;52.404;16.942;2022-09-09T15:53:56;4.45;;;2.78;;
55815;SDS011;41744;52.404;16.942;2022-09-09T15:56:23;4.35;;;2.20;;
55815;SDS011;41744;52.404;16.942;2022-09-09T15:58:49;4.53;;;2.00;;
55815;SDS011;41744;52.404;16.942;2022-09-09T16:01:17;4.75;;;2.00;;
55815;SDS011;41744;52.404;16.942;2022-09-09T16:03:44;5.53;;;1.80;;
55815;SDS011;41744;52.404;16.942;2022-09-09T16:06:11;5.10;;;2.00;;
55815;SDS011;41744;52.404;16.942;2022-09-09T16:08:39;4.13;;;1.85;;
55815;SDS011;41744;52.404;16.942;2022-09-09T16:11:12;3.92;;;1.95;;
55815;SDS011;41744;52.404;16.942;2022-09-09T16:13:40;4.85;;;1.98;;
55815;SDS011;41744;52.404;16.942;2022-09-09T16:16:06;3.33;;;2.05;;
55815;SDS011;41744;52.404;16.942;2022-09-09T16:18:33;3.75;;;2.17;;
55815;SDS011;41744;52.404;16.942;2022-09-09T16:21:00;4.32;;;2.22;;
55815;SDS011;41744;52.404;16.942;2022-09-09T16:23:26;3.70;;;2.05;;
55815;SDS011;41744;52.404;16.942;2022-09-09T16:25:55;5.20;;;2.10;;
55815;SDS011;41744;52.404;16.942;2022-09-09T16:28:22;3.55;;;2.20;;